Time;durP1;ratioP1;P1;durP2;ratioP2;P2;SDS_P1;SDS_P2;PMS_P1;PMS_P2;Temp;Humidity;BMP_temperature;BMP_pressure;BME280_temperature;BME280_humidity;BME280_pressure;Samples;Min_cycle;Max_cycle;Signal;HPM_P1;HPM_P2
2023/09/20 00:01:53;;;;;;;7.07;3.72;;;17.10;99.90;;;;;;5055039;28;20040;-89
2023/09/20 00:04:22;;;;;;;11.60;3.78;;;17.10;99.90;;;;;;5056135;28;20032;-90
2023/09/20 00:06:48;;;;;;;7.45;3.33;;;17.10;99.90;;;;;;5056341;28;20542;-90
2023/09/20 00:09:15;;;;;;;9.15;4.00;;;17.10;99.90;;;;;;5072844;28;20035;-88
2023/09/20 00:11:43;;;;;;;10.00;3.70;;;17.20;99.90;;;;;;5056015;28;20075;-88
2023/09/20 00:14:08;;;;;;;7.38;3.60;;;17.20;99.90;;;;;;5055877;28;20086;-88
2023/09/20 00:16:34;;;;;;;8.32;3.50;;;17.20;99.90;;;;;;5072690;28;20028;-89
2023/09/20 00:19:00;;;;;;;4.38;2.80;;;17.10;99.90;;;;;;5054627;28;20456;-89
2023/09/20 00:21:26;;;;;;;10.23;4.43;;;17.20;99.90;;;;;;5055621;28;20039;-89
2023/09/20 00:23:51;;;;;;;9.15;3.97;;;17.20;99.90;;;;;;5055089;28;20040;-89
2023/09/20 00:26:20;;;;;;;6.47;3.45;;;17.20;99.90;;;;;;5090267;28;20036;-88
2023/09/20 00:28:48;;;;;;;8.20;3.58;;;17.20;99.90;;;;;;5090264;28;20044;-89
2023/09/20 00:31:15;;;;;;;5.22;3.38;;;17.20;99.90;;;;;;5089447;28;20059;-89
2023/09/20 00:33:41;;;;;;;8.02;3.60;;;17.20;99.90;;;;;;5072156;28;20055;-88
2023/09/20 00:36:07;;;;;;;8.38;3.90;;;17.20;99.90;;;;;;5055847;28;20040;-89
2023/09/20 00:38:34;;;;;;;8.77;3.72;;;17.30;99.90;;;;;;5055589;28;20039;-88
2023/09/20 00:41:05;;;;;;;6.53;3.47;;;17.30;99.90;;;;;;5054727;28;20028;-88
2023/09/20 00:43:31;;;;;;;6.10;3.30;;;17.20;99.90;;;;;;5055004;28;20040;-89
2023/09/20 00:45:59;;;;;;;7.20;3.08;;;17.30;99.90;;;;;;5071829;28;20047;-89
2023/09/20 00:48:26;;;;;;;8.20;3.58;;;17.20;99.90;;;;;;5073214;28;20052;-89
2023/09/20 00:50:51;;;;;;;6.35;3.45;;;17.20;99.90;;;;;;5094228;28;20064;-89
2023/09/20 00:53:17;;;;;;;7.50;3.58;;;17.20;99.90;;;;;;5093576;28;20078;-89
2023/09/20 00:55:43;;;;;;;9.68;3.65;;;17.30;99.90;;;;;;5056964;28;20138;-88
2023/09/20 00:58:14;;;;;;;12.13;3.40;;;17.30;99.90;;;;;;5099437;28;20537;-90
2023/09/20 01:00:43;;;;;;;7.40;3.45;;;17.30;99.90;;;;;;5094618;28;20075;-89
2023/09/20 01:03:15;;;;;;;8.27;3.83;;;17.40;99.90;;;;;;5081859;28;20047;-90
2023/09/20 01:05:42;;;;;;;7.82;3.50;;;17.30;99.90;;;;;;5071594;28;20100;-90
2023/09/20 01:08:08;;;;;;;6.15;3.50;;;17.30;99.90;;;;;;5060744;28;20047;-90
2023/09/20 01:10:38;;;;;;;5.57;2.97;;;17.30;99.90;;;;;;5075404;28;20043;-90
2023/09/20 01:13:09;;;;;;;7.35;3.58;;;17.40;99.90;;;;;;5062723;28;20039;-89
2023/09/20 01:15:36;;;;;;;9.70;3.30;;;17.30;99.90;;;;;;5076498;28;20135;-89
2023/09/20 01:18:04;;;;;;;8.20;3.35;;;17.40;99.90;;;;;;5072842;28;20090;-90
2023/09/20 01:20:36;;;;;;;7.93;3.22;;;17.40;99.90;;;;;;5093506;28;20039;-89
2023/09/20 01:23:02;;;;;;;8.52;3.60;;;17.30;99.90;;;;;;5095002;28;20039;-89
2023/09/20 01:25:29;;;;;;;6.75;3.30;;;17.40;99.90;;;;;;5075838;28;20126;-89
2023/09/20 01:28:01;;;;;;;8.80;3.20;;;17.30;99.90;;;;;;5091824;28;20050;-89
2023/09/20 01:30:28;;;;;;;8.23;3.10;;;17.30;99.90;;;;;;5059519;28;20048;-89
2023/09/20 01:32:55;;;;;;;8.52;3.72;;;17.40;99.90;;;;;;5058405;28;20040;-89
2023/09/20 01:35:25;;;;;;;8.23;3.88;;;17.40;99.90;;;;;;5081754;28;20070;-89
2023/09/20 01:37:52;;;;;;;7.50;3.13;;;17.40;99.90;;;;;;5057182;28;20475;-89
2023/09/20 01:40:25;;;;;;;7.03;3.30;;;17.40;99.90;;;;;;5091946;28;20490;-89
2023/09/20 01:42:58;;;;;;;6.93;2.92;;;17.40;99.90;;;;;;5075669;28;20063;-89
2023/09/20 01:45:24;;;;;;;7.13;3.40;;;17.40;99.90;;;;;;5058515;28;20048;-89
2023/09/20 01:47:55;;;;;;;8.57;3.22;;;17.40;99.90;;;;;;5074927;28;20064;-90
2023/09/20 01:50:25;;;;;;;7.63;3.20;;;17.40;99.90;;;;;;5093175;28;20494;-90
2023/09/20 01:52:53;;;;;;;4.80;3.00;;;17.30;99.90;;;;;;5060210;28;20036;-91
2023/09/20 01:55:23;;;;;;;6.32;2.90;;;17.40;99.90;;;;;;5074690;28;20119;-89
2023/09/20 01:57:52;;;;;;;6.38;3.25;;;17.40;99.90;;;;;;5059566;28;20027;-89
2023/09/20 02:00:31;;;;;;;5.40;2.60;;;17.40;99.90;;;;;;5077525;28;20036;-89
2023/09/20 02:03:00;;;;;;;8.90;3.42;;;17.40;99.90;;;;;;5058955;28;20051;-89
2023/09/20 02:05:27;;;;;;;7.22;3.28;;;17.40;99.90;;;;;;5075368;28;20044;-89
2023/09/20 02:07:54;;;;;;;8.30;3.22;;;17.40;99.90;;;;;;5092171;28;20044;-89
2023/09/20 02:10:21;;;;;;;8.35;3.38;;;17.40;99.90;;;;;;5058643;28;20055;-90
2023/09/20 02:12:51;;;;;;;9.50;3.45;;;17.30;99.90;;;;;;5075764;28;20032;-90
2023/09/20 02:15:18;;;;;;;3.83;3.08;;;17.40;99.90;;;;;;5090901;28;20039;-89
2023/09/20 02:17:44;;;;;;;5.13;2.90;;;17.40;99.90;;;;;;5071195;28;20036;-89
2023/09/20 02:20:12;;;;;;;7.45;3.15;;;17.40;99.90;;;;;;5092898;28;20036;-91
2023/09/20 02:22:39;;;;;;;6.30;2.85;;;17.40;99.90;;;;;;5074371;28;20028;-87
2023/09/20 02:25:12;;;;;;;9.55;3.53;;;17.40;99.90;;;;;;5091149;28;20549;-90
2023/09/20 02:27:42;;;;;;;5.82;3.25;;;17.40;99.90;;;;;;5074759;28;20075;-90
2023/09/20 02:30:10;;;;;;;8.82;3.45;;;17.40;99.90;;;;;;5092709;28;20036;-89
2023/09/20 02:32:36;;;;;;;6.03;2.90;;;17.40;99.90;;;;;;5075222;28;20052;-89
2023/09/20 02:35:03;;;;;;;8.18;2.83;;;17.40;99.90;;;;;;5075572;28;20474;-89
2023/09/20 02:37:30;;;;;;;7.13;2.95;;;17.40;99.90;;;;;;5058924;28;20128;-89
2023/09/20 02:39:57;;;;;;;7.65;3.00;;;17.40;99.90;;;;;;5059626;28;20028;-89
2023/09/20 02:42:26;;;;;;;7.55;3.10;;;17.50;99.90;;;;;;5092940;28;20036;-89
2023/09/20 02:44:55;;;;;;;7.90;3.78;;;17.40;99.90;;;;;;5091679;28;20050;-90
2023/09/20 02:47:24;;;;;;;8.13;3.63;;;17.40;99.90;;;;;;5059045;28;20043;-89
2023/09/20 02:49:49;;;;;;;7.45;2.90;;;17.40;99.90;;;;;;5092788;28;20110;-91
2023/09/20 02:52:17;;;;;;;7.18;3.20;;;17.40;99.90;;;;;;5094142;28;20059;-89
2023/09/20 02:54:43;;;;;;;7.50;3.22;;;17.40;99.90;;;;;;5059219;28;20040;-89
2023/09/20 02:57:12;;;;;;;7.80;3.40;;;17.40;99.90;;;;;;5076267;28;20035;-90
2023/09/20 02:59:39;;;;;;;7.25;3.47;;;17.40;99.90;;;;;;5093382;28;20036;-90
2023/09/20 03:02:05;;;;;;;4.72;3.30;;;17.50;99.90;;;;;;5058471;28;20040;-89
2023/09/20 03:04:31;;;;;;;5.63;3.45;;;17.40;99.90;;;;;;5074072;28;20036;-90
2023/09/20 03:06:57;;;;;;;7.68;3.20;;;17.40;99.90;;;;;;5076584;28;20505;-89
2023/09/20 03:09:24;;;;;;;7.95;3.92;;;17.40;99.90;;;;;;5059326;28;20044;-90
2023/09/20 03:11:51;;;;;;;7.43;3.55;;;17.30;99.90;;;;;;5076570;28;20102;-90
2023/09/20 03:14:17;;;;;;;8.55;3.47;;;17.40;99.90;;;;;;5092662;28;20524;-90
2023/09/20 03:16:44;;;;;;;7.00;3.17;;;17.40;99.90;;;;;;5058027;28;20059;-90
2023/09/20 03:19:11;;;;;;;7.60;3.40;;;17.40;99.90;;;;;;5076850;28;20047;-89
2023/09/20 03:21:36;;;;;;;6.60;3.53;;;17.40;99.90;;;;;;5093116;28;20520;-90
2023/09/20 03:24:05;;;;;;;11.82;3.60;;;17.50;99.90;;;;;;5093085;28;20036;-89
2023/09/20 03:26:32;;;;;;;4.30;3.17;;;17.40;99.90;;;;;;5092703;28;20516;-90
2023/09/20 03:28:57;;;;;;;5.32;3.20;;;17.30;99.90;;;;;;5093964;28;20044;-90
2023/09/20 03:31:25;;;;;;;5.55;3.40;;;17.40;99.90;;;;;;5073955;28;20048;-90
2023/09/20 03:33:51;;;;;;;10.23;3.80;;;17.30;99.90;;;;;;5056656;28;20464;-90
2023/09/20 03:36:17;;;;;;;7.65;3.33;;;17.40;99.90;;;;;;5075477;28;20062;-90
2023/09/20 03:38:43;;;;;;;5.53;3.40;;;17.30;99.90;;;;;;5074244;28;20508;-91
2023/09/20 03:41:10;;;;;;;7.55;3.40;;;17.30;99.90;;;;;;5079790;28;20069;-90
2023/09/20 03:43:37;;;;;;;4.90;3.30;;;17.30;99.90;;;;;;5075443;28;20044;-90
2023/09/20 03:46:02;;;;;;;7.68;3.35;;;17.10;99.90;;;;;;5092999;28;20039;-89
2023/09/20 03:48:28;;;;;;;11.07;3.70;;;17.10;99.90;;;;;;5075371;28;20043;-90
2023/09/20 03:50:53;;;;;;;11.10;3.78;;;17.00;99.90;;;;;;5090583;28;20198;-90
2023/09/20 03:53:19;;;;;;;6.78;3.53;;;17.00;99.90;;;;;;5074612;28;20028;-90
2023/09/20 03:55:49;;;;;;;7.28;3.40;;;16.80;99.90;;;;;;5059449;28;20466;-90
2023/09/20 03:58:15;;;;;;;8.55;3.35;;;16.80;99.90;;;;;;5084117;28;20031;-90
2023/09/20 04:00:42;;;;;;;7.18;3.65;;;16.70;99.90;;;;;;5073587;28;20431;-90
2023/09/20 04:03:08;;;;;;;7.05;3.10;;;16.80;99.90;;;;;;5058393;28;20060;-90
2023/09/20 04:05:35;;;;;;;8.13;3.28;;;16.60;99.90;;;;;;5076357;28;20059;-90
2023/09/20 04:08:02;;;;;;;4.88;3.20;;;16.60;99.90;;;;;;5074330;28;20039;-90
2023/09/20 04:10:28;;;;;;;11.52;3.92;;;16.50;99.90;;;;;;5072160;28;20105;-90
2023/09/20 04:12:53;;;;;;;9.25;3.50;;;16.50;99.90;;;;;;5069685;28;20044;-90
2023/09/20 04:15:19;;;;;;;5.97;3.30;;;16.40;99.90;;;;;;5090476;28;20036;-91
2023/09/20 04:17:48;;;;;;;8.77;3.63;;;16.30;99.90;;;;;;5063196;28;20035;-90
2023/09/20 04:20:13;;;;;;;11.27;3.45;;;16.30;99.90;;;;;;5071318;28;20509;-90
2023/09/20 04:22:41;;;;;;;9.63;3.45;;;16.20;99.90;;;;;;5075006;28;20059;-90
2023/09/20 04:25:10;;;;;;;6.82;3.65;;;16.20;99.90;;;;;;5062952;28;20036;-90
2023/09/20 04:27:36;;;;;;;7.07;3.55;;;16.10;99.90;;;;;;5097351;28;20048;-90
2023/09/20 04:30:01;;;;;;;6.90;3.50;;;16.10;99.90;;;;;;5065307;28;20453;-91
2023/09/20 04:32:27;;;;;;;9.13;3.40;;;16.10;99.90;;;;;;5062108;28;20105;-90
2023/09/20 04:34:54;;;;;;;5.15;3.08;;;16.00;99.90;;;;;;5063398;28;20058;-90
2023/09/20 04:37:22;;;;;;;4.88;3.30;;;15.90;99.90;;;;;;5097030;28;20054;-89
2023/09/20 04:39:49;;;;;;;8.13;3.85;;;15.90;99.90;;;;;;5078521;28;20429;-89
2023/09/20 04:42:15;;;;;;;9.68;3.90;;;15.90;99.90;;;;;;5061753;28;20095;-89
2023/09/20 04:44:41;;;;;;;9.93;3.92;;;15.80;99.90;;;;;;5079137;28;20473;-89
2023/09/20 04:47:14;;;;;;;4.43;3.33;;;15.70;99.90;;;;;;5095469;28;20043;-90
2023/09/20 04:49:44;;;;;;;7.65;3.95;;;15.80;99.90;;;;;;5078182;28;20044;-89
2023/09/20 04:52:11;;;;;;;7.30;3.35;;;15.70;99.90;;;;;;5078479;28;20040;-89
2023/09/20 04:54:39;;;;;;;8.35;3.20;;;15.70;99.90;;;;;;5055539;28;20056;-91
2023/09/20 04:57:04;;;;;;;6.40;3.63;;;15.70;99.90;;;;;;5079706;28;20529;-91
2023/09/20 04:59:33;;;;;;;7.68;4.00;;;15.70;99.90;;;;;;5064815;28;20039;-90
2023/09/20 05:02:03;;;;;;;6.82;3.83;;;15.60;99.90;;;;;;5053920;28;20494;-89
2023/09/20 05:04:29;;;;;;;5.95;3.80;;;15.60;99.90;;;;;;5061212;28;20052;-91
2023/09/20 05:06:55;;;;;;;8.48;3.80;;;15.70;99.90;;;;;;5061626;28;20047;-91
2023/09/20 05:09:21;;;;;;;8.05;4.38;;;15.60;99.90;;;;;;5058215;28;20067;-89
2023/09/20 05:11:47;;;;;;;6.50;3.80;;;15.60;99.90;;;;;;5058314;28;20104;-89
2023/09/20 05:14:12;;;;;;;9.63;3.88;;;15.50;99.90;;;;;;5060432;28;20036;-90
2023/09/20 05:16:38;;;;;;;7.32;3.70;;;15.60;99.90;;;;;;5079287;28;20099;-90
2023/09/20 05:19:03;;;;;;;6.82;3.33;;;15.50;99.90;;;;;;5078181;28;20116;-91
2023/09/20 05:21:29;;;;;;;5.82;3.20;;;15.50;99.90;;;;;;5063867;28;20084;-91
2023/09/20 05:23:55;;;;;;;8.30;3.58;;;15.50;99.90;;;;;;5063636;28;20502;-89
2023/09/20 05:26:21;;;;;;;6.97;3.70;;;15.50;99.90;;;;;;5050193;28;20048;-87
2023/09/20 05:41:03;;;;;;;5.78;3.30;;;15.50;99.90;;;;;;4982926;28;20061;-87
2023/09/20 05:43:42;;;;;;;5.88;3.35;;;15.60;99.90;;;;;;5065924;28;20040;-89
2023/09/20 05:46:09;;;;;;;8.77;3.40;;;15.60;99.90;;;;;;5074445;28;20119;-91
2023/09/20 05:48:36;;;;;;;8.32;3.58;;;15.70;99.90;;;;;;5075782;28;20181;-89
2023/09/20 05:51:01;;;;;;;6.32;3.30;;;15.70;99.90;;;;;;5077556;28;20085;-90
2023/09/20 05:53:28;;;;;;;7.55;3.05;;;15.70;99.90;;;;;;5075339;28;20067;-90
2023/09/20 05:55:54;;;;;;;6.30;3.45;;;15.80;99.90;;;;;;5059355;28;20036;-89
2023/09/20 05:58:19;;;;;;;6.47;3.53;;;15.80;99.90;;;;;;5074522;28;20038;-88
2023/09/20 06:00:45;;;;;;;7.07;2.97;;;15.80;99.90;;;;;;5057793;28;20123;-86
2023/09/20 06:03:12;;;;;;;9.55;3.40;;;15.80;99.90;;;;;;5075443;28;20031;-88
2023/09/20 06:05:38;;;;;;;5.40;3.05;;;15.90;99.90;;;;;;5057884;28;20051;-88
2023/09/20 06:08:07;;;;;;;7.53;3.15;;;16.00;99.90;;;;;;5068592;28;20547;-89
2023/09/20 06:10:33;;;;;;;6.35;3.45;;;16.00;99.90;;;;;;5057442;28;20038;-91
2023/09/20 06:12:59;;;;;;;5.53;3.22;;;16.00;99.90;;;;;;5060767;28;20040;-90
2023/09/20 06:15:25;;;;;;;9.88;3.25;;;16.10;99.90;;;;;;5060463;28;20040;-90
2023/09/20 06:17:51;;;;;;;6.13;3.28;;;16.10;99.90;;;;;;5059314;28;20067;-88
2023/09/20 06:20:21;;;;;;;4.97;3.28;;;16.20;99.90;;;;;;5059886;28;20032;-90
2023/09/20 06:22:48;;;;;;;4.88;3.08;;;16.20;99.90;;;;;;5058608;28;20168;-85
2023/09/20 06:25:21;;;;;;;6.93;3.92;;;16.30;99.90;;;;;;5062027;28;20036;-89
2023/09/20 06:27:50;;;;;;;7.27;3.80;;;16.30;99.90;;;;;;5057001;28;20042;-88
2023/09/20 06:30:17;;;;;;;6.57;3.70;;;16.20;99.90;;;;;;5055745;28;20047;-89
2023/09/20 06:32:44;;;;;;;6.63;3.83;;;16.30;99.90;;;;;;5077584;28;20616;-89
2023/09/20 06:35:11;;;;;;;6.03;3.17;;;16.30;99.90;;;;;;5061123;28;20047;-89
2023/09/20 06:37:40;;;;;;;8.95;3.90;;;16.40;99.90;;;;;;5058320;28;20024;-89
2023/09/20 06:40:21;;;;;;;7.03;3.13;;;16.40;99.90;;;;;;5076612;28;20043;-88
2023/09/20 06:42:46;;;;;;;6.93;3.60;;;16.50;99.90;;;;;;5080375;28;20067;-89
2023/09/20 06:45:12;;;;;;;5.78;3.65;;;16.50;99.90;;;;;;5059220;28;20079;-88
2023/09/20 06:47:39;;;;;;;9.38;3.63;;;16.60;99.90;;;;;;5058620;28;20036;-90
2023/09/20 06:50:06;;;;;;;6.70;3.30;;;16.70;99.90;;;;;;5060174;28;20075;-88
2023/09/20 06:52:31;;;;;;;7.97;3.45;;;16.70;99.90;;;;;;5059404;28;20040;-90
2023/09/20 06:54:57;;;;;;;8.98;4.07;;;16.80;99.90;;;;;;5056699;28;20583;-88
2023/09/20 06:57:22;;;;;;;8.68;3.83;;;16.90;99.90;;;;;;5057599;28;20136;-89
2023/09/20 06:59:52;;;;;;;8.20;3.80;;;16.90;99.90;;;;;;5057739;28;20039;-89
2023/09/20 07:02:19;;;;;;;10.95;3.67;;;17.00;99.90;;;;;;5052761;28;20067;-89
2023/09/20 07:04:44;;;;;;;6.28;3.53;;;17.00;99.90;;;;;;5073446;28;20057;-88
2023/09/20 07:07:10;;;;;;;4.70;3.38;;;17.20;99.90;;;;;;5060240;28;20040;-89
2023/09/20 07:09:37;;;;;;;7.55;3.70;;;17.10;99.90;;;;;;5057504;28;20043;-89
2023/09/20 07:12:03;;;;;;;8.20;3.55;;;17.10;99.90;;;;;;5061130;28;20050;-88
2023/09/20 07:14:31;;;;;;;7.32;3.88;;;17.20;99.90;;;;;;5058349;28;20066;-89
2023/09/20 07:17:00;;;;;;;3.90;3.42;;;17.20;99.90;;;;;;5074722;28;20123;-89
2023/09/20 07:19:27;;;;;;;7.28;3.47;;;17.20;99.90;;;;;;5075199;28;20075;-88
2023/09/20 07:21:53;;;;;;;6.60;3.80;;;17.20;99.90;;;;;;5076214;28;20028;-88
2023/09/20 07:24:24;;;;;;;7.40;3.83;;;17.20;99.90;;;;;;5058574;28;20508;-91
2023/09/20 07:26:51;;;;;;;6.65;3.20;;;17.20;99.90;;;;;;5059287;28;20040;-88
2023/09/20 07:29:21;;;;;;;5.45;3.53;;;17.20;99.90;;;;;;5079191;28;20040;-90
2023/09/20 07:31:48;;;;;;;8.82;3.60;;;17.30;99.90;;;;;;5069672;28;20079;-88
2023/09/20 07:34:15;;;;;;;8.27;3.78;;;17.30;99.90;;;;;;5080975;28;20040;-89
2023/09/20 07:36:43;;;;;;;5.47;3.38;;;17.40;99.90;;;;;;5061630;28;20497;-89
2023/09/20 07:39:12;;;;;;;7.60;3.55;;;17.50;99.90;;;;;;5081705;28;20043;-89
2023/09/20 07:41:44;;;;;;;5.57;3.60;;;17.70;99.90;;;;;;5077058;28;20040;-88
2023/09/20 07:44:13;;;;;;;4.40;3.20;;;18.00;99.90;;;;;;5060592;28;20050;-89
2023/09/20 07:46:40;;;;;;;6.72;3.25;;;18.20;99.90;;;;;;5077734;28;21028;-90
2023/09/20 07:49:13;;;;;;;6.50;3.40;;;18.50;99.90;;;;;;5075417;28;20465;-89
2023/09/20 07:51:39;;;;;;;4.65;3.15;;;18.60;99.90;;;;;;5083957;28;20051;-90
2023/09/20 07:54:09;;;;;;;10.30;4.00;;;18.90;99.90;;;;;;5075786;28;20032;-88
2023/09/20 07:56:34;;;;;;;6.47;3.65;;;19.20;99.90;;;;;;5074769;28;20036;-88
2023/09/20 07:59:03;;;;;;;5.50;3.42;;;19.40;99.90;;;;;;5061093;28;20492;-90
2023/09/20 08:01:32;;;;;;;6.13;3.20;;;19.40;99.90;;;;;;5060941;28;20165;-90
2023/09/20 08:03:59;;;;;;;4.63;3.58;;;19.40;99.90;;;;;;5062468;28;20043;-89
2023/09/20 08:06:28;;;;;;;4.68;2.60;;;19.40;99.90;;;;;;5077846;28;20048;-90
2023/09/20 08:08:55;;;;;;;8.02;3.20;;;19.40;99.90;;;;;;5061710;28;20028;-89
2023/09/20 08:11:21;;;;;;;5.85;3.28;;;19.40;99.90;;;;;;5077790;28;20067;-89
2023/09/20 08:13:49;;;;;;;4.53;3.08;;;19.50;99.90;;;;;;5080963;28;20509;-90
2023/09/20 08:16:15;;;;;;;5.80;2.90;;;19.50;99.90;;;;;;5076032;28;20040;-90
2023/09/20 08:21:26;;;;;;;4.10;2.95;;;19.40;99.90;;;;;;5075526;28;20043;-88
2023/09/20 08:59:57;;;;;;;5.05;2.55;;;19.10;99.90;;;;;;5075766;28;20051;-93
2023/09/20 09:02:25;;;;;;;5.28;2.83;;;19.20;99.90;;;;;;5063958;28;20036;-88
2023/09/20 09:04:55;;;;;;;4.68;2.67;;;19.30;99.90;;;;;;5058261;28;20036;-89
2023/09/20 09:07:25;;;;;;;4.25;2.40;;;19.30;99.90;;;;;;5079471;28;20036;-89
2023/09/20 09:09:52;;;;;;;5.18;2.88;;;19.40;99.90;;;;;;5059250;28;20115;-90
2023/09/20 09:12:18;;;;;;;4.18;2.22;;;19.40;99.90;;;;;;5093886;28;20047;-90
2023/09/20 09:14:48;;;;;;;5.38;2.85;;;19.50;99.90;;;;;;5060853;28;20052;-89
2023/09/20 09:17:14;;;;;;;3.58;2.25;;;19.50;99.90;;;;;;5059324;28;20036;-92
2023/09/20 09:19:42;;;;;;;4.28;2.58;;;19.60;99.90;;;;;;5063220;28;20085;-93
2023/09/20 09:22:10;;;;;;;5.22;2.60;;;19.60;99.90;;;;;;5063721;28;20035;-93
2023/09/20 09:24:44;;;;;;;6.05;2.95;;;19.70;99.90;;;;;;5076677;28;20052;-90
2023/09/20 09:27:11;;;;;;;6.38;2.65;;;19.70;99.90;;;;;;5075147;28;20032;-91
2023/09/20 09:29:37;;;;;;;4.25;2.55;;;19.60;99.90;;;;;;5066543;28;20118;-93
2023/09/20 09:32:04;;;;;;;4.38;2.47;;;19.50;99.90;;;;;;5066602;28;20095;-92
2023/09/20 09:34:31;;;;;;;4.43;2.53;;;19.50;99.90;;;;;;5074703;28;20033;-91
2023/09/20 09:36:57;;;;;;;6.60;2.63;;;19.40;99.90;;;;;;5082505;28;20044;-90
2023/09/20 09:39:24;;;;;;;3.70;2.00;;;19.40;99.90;;;;;;5065566;28;20036;-91
2023/09/20 09:41:51;;;;;;;3.97;2.50;;;19.40;99.90;;;;;;5060227;28;20421;-88
2023/09/20 09:44:17;;;;;;;6.80;2.60;;;19.40;99.90;;;;;;5068479;28;20041;-91
2023/09/20 09:46:43;;;;;;;2.83;2.10;;;19.40;99.90;;;;;;5065245;28;20068;-90
2023/09/20 09:49:11;;;;;;;4.32;2.40;;;19.40;99.90;;;;;;5058983;28;20161;-90
2023/09/20 09:51:45;;;;;;;3.85;3.05;;;19.50;99.90;;;;;;5060458;28;20077;-93
2023/09/20 09:54:15;;;;;;;3.47;2.50;;;19.30;99.90;;;;;;5058529;28;20068;-91
2023/09/20 09:56:41;;;;;;;2.88;2.30;;;19.30;99.90;;;;;;5059822;28;20020;-90
2023/09/20 09:59:23;;;;;;;3.33;2.08;;;19.30;99.90;;;;;;5071469;28;20112;-90
2023/09/20 10:01:50;;;;;;;4.13;2.55;;;19.20;99.90;;;;;;5078582;28;20082;-91
2023/09/20 10:04:19;;;;;;;3.25;2.30;;;19.20;99.90;;;;;;5063064;28;20048;-91
2023/09/20 10:06:53;;;;;;;4.43;2.67;;;19.20;99.90;;;;;;5063841;28;20046;-91
2023/09/20 10:09:25;;;;;;;3.50;2.20;;;19.20;99.90;;;;;;5061169;28;20063;-89
2023/09/20 10:11:51;;;;;;;4.82;2.10;;;19.30;99.90;;;;;;5060142;28;20096;-90
2023/09/20 10:14:19;;;;;;;4.45;2.50;;;19.30;99.90;;;;;;5065691;28;20521;-91
2023/09/20 10:16:46;;;;;;;4.38;2.90;;;19.30;99.90;;;;;;5058936;28;20036;-91
2023/09/20 10:19:15;;;;;;;3.47;2.50;;;19.40;99.90;;;;;;5077034;28;20039;-90
2023/09/20 10:22:09;;;;;;;3.28;2.38;;;19.40;99.90;;;;;;5074431;28;20035;-90
2023/09/20 10:24:55;;;;;;;3.30;2.45;;;19.40;99.90;;;;;;5058970;28;20040;-90
2023/09/20 10:27:22;;;;;;;4.75;2.55;;;19.50;99.90;;;;;;5076587;28;20032;-90
2023/09/20 10:29:59;;;;;;;4.05;2.42;;;19.60;99.90;;;;;;5077732;28;20046;-90
2023/09/20 10:32:31;;;;;;;5.32;2.80;;;19.60;99.90;;;;;;5060599;28;20513;-90
2023/09/20 10:35:31;;;;;;;6.20;2.63;;;19.70;99.90;;;;;;5056306;28;20036;-91
2023/09/20 10:38:09;;;;;;;4.65;2.65;;;19.80;99.90;;;;;;5073559;28;20286;-90
2023/09/20 10:40:48;;;;;;;6.10;2.67;;;19.80;99.90;;;;;;5057307;28;20040;-90
2023/09/20 10:43:36;;;;;;;5.50;2.83;;;19.90;99.90;;;;;;5052883;28;20034;-90
2023/09/20 10:46:17;;;;;;;3.15;2.47;;;19.90;99.90;;;;;;5056628;28;20123;-90
2023/09/20 10:48:49;;;;;;;3.03;2.00;;;19.90;99.90;;;;;;5073326;28;20047;-89
2023/09/20 10:51:44;;;;;;;3.88;2.78;;;20.00;99.90;;;;;;5070372;28;20105;-88
2023/09/20 10:54:25;;;;;;;6.25;2.85;;;20.00;99.90;;;;;;5057064;28;20036;-88
2023/09/20 10:56:53;;;;;;;4.25;2.83;;;20.10;99.90;;;;;;5095768;28;20545;-89
2023/09/20 10:59:26;;;;;;;3.97;2.60;;;20.10;99.90;;;;;;5055566;28;20028;-88
2023/09/20 11:02:38;;;;;;;5.35;2.65;;;20.10;99.90;;;;;;5067492;28;20545;-88
2023/09/20 11:12:28;;;;;;;3.58;2.58;;;20.80;99.90;;;;;;5085881;22;20047;-32
2023/09/20 11:14:55;;;;;;;4.05;2.50;;;21.00;99.90;;;;;;5071314;28;20048;-31
2023/09/20 11:17:21;;;;;;;3.50;2.08;;;21.40;99.90;;;;;;5047875;28;20059;-32
2023/09/20 11:19:47;;;;;;;3.05;2.15;;;21.80;99.90;;;;;;5073393;28;20041;-32
2023/09/20 11:22:18;;;;;;;3.38;2.10;;;22.00;99.90;;;;;;5072520;28;20046;-32
2023/09/20 11:24:44;;;;;;;4.93;2.03;;;22.00;99.90;;;;;;5077542;28;20102;-32
2023/09/20 11:27:11;;;;;;;5.28;2.50;;;22.00;99.90;;;;;;5075120;28;20040;-30
2023/09/20 11:29:40;;;;;;;3.05;2.17;;;21.80;99.90;;;;;;5068507;28;20044;-29
2023/09/20 11:32:12;;;;;;;3.15;2.30;;;21.60;99.90;;;;;;5075093;28;20103;-31
2023/09/20 11:34:47;;;;;;;4.60;2.67;;;21.40;99.90;;;;;;5051560;28;20040;-31
2023/09/20 11:37:20;;;;;;;2.30;2.10;;;21.20;99.90;;;;;;5076630;28;20037;-31
2023/09/20 11:39:47;;;;;;;3.92;2.50;;;21.20;99.90;;;;;;5070005;28;20051;-30
2023/09/20 11:42:27;;;;;;;6.75;3.08;;;21.10;99.90;;;;;;5071406;28;20036;-30
2023/09/20 11:44:58;;;;;;;2.80;2.13;;;21.20;99.90;;;;;;5072115;28;20396;-29
2023/09/20 11:47:24;;;;;;;4.60;2.80;;;21.80;99.90;;;;;;5073107;28;20066;-29
2023/09/20 11:49:50;;;;;;;5.43;2.55;;;22.30;99.90;;;;;;5072097;28;20047;-30
2023/09/20 11:52:19;;;;;;;3.90;2.30;;;22.90;99.90;;;;;;5069261;28;20054;-29
2023/09/20 11:54:47;;;;;;;3.50;2.30;;;23.30;99.90;;;;;;5071744;28;20036;-31
2023/09/20 11:57:16;;;;;;;6.10;2.70;;;23.60;99.90;;;;;;5074492;28;20094;-30
2023/09/20 11:59:43;;;;;;;6.68;2.70;;;23.70;99.90;;;;;;5073941;28;20067;-30
2023/09/20 12:02:09;;;;;;;6.30;2.70;;;23.80;99.90;;;;;;5070165;28;20048;-30
2023/09/20 12:04:35;;;;;;;5.03;2.30;;;24.00;99.90;;;;;;5070797;28;20182;-30
2023/09/20 12:07:01;;;;;;;5.22;2.75;;;24.50;99.90;;;;;;5069135;28;20121;-30
2023/09/20 12:09:27;;;;;;;3.75;2.63;;;24.40;99.90;;;;;;5069505;28;20136;-30
2023/09/20 12:11:53;;;;;;;4.90;3.00;;;24.20;99.90;;;;;;5067703;28;20032;-30
2023/09/20 12:14:19;;;;;;;4.35;3.10;;;24.00;99.90;;;;;;5066826;28;20365;-32
2023/09/20 12:16:47;;;;;;;4.18;2.90;;;23.80;99.90;;;;;;5063194;28;20067;-29
2023/09/20 12:19:17;;;;;;;4.00;2.85;;;23.70;99.90;;;;;;5070938;28;20127;-30
2023/09/20 12:21:45;;;;;;;4.70;2.83;;;23.80;99.90;;;;;;5074989;28;20035;-30
2023/09/20 12:24:12;;;;;;;4.57;3.10;;;24.20;99.90;;;;;;5069671;28;20033;-29
2023/09/20 12:26:38;;;;;;;5.20;3.00;;;24.50;99.90;;;;;;5070252;28;20043;-30
2023/09/20 12:29:04;;;;;;;3.00;2.35;;;24.50;99.90;;;;;;5065338;28;20519;-30
2023/09/20 12:31:29;;;;;;;2.63;2.40;;;24.40;99.90;;;;;;5073447;28;20134;-30
2023/09/20 12:33:55;;;;;;;3.97;2.22;;;24.40;99.90;;;;;;5071617;28;20106;-30
2023/09/20 12:36:23;;;;;;;3.97;2.40;;;24.40;99.90;;;;;;5066502;28;20044;-31
2023/09/20 12:38:50;;;;;;;3.05;2.63;;;24.50;99.90;;;;;;5073405;28;20028;-30
2023/09/20 12:41:17;;;;;;;4.70;2.53;;;24.50;99.90;;;;;;5072051;28;20483;-30
2023/09/20 12:43:44;;;;;;;4.10;2.80;;;24.50;99.90;;;;;;5068145;28;20111;-31
2023/09/20 12:46:10;;;;;;;4.90;2.30;;;24.40;99.90;;;;;;5074973;28;20044;-30
2023/09/20 12:48:37;;;;;;;5.03;2.67;;;24.50;99.90;;;;;;5072995;28;20123;-31
2023/09/20 12:51:04;;;;;;;2.53;2.00;;;24.60;99.90;;;;;;5029621;28;20040;-29
2023/09/20 12:53:33;;;;;;;2.75;2.10;;;25.30;99.90;;;;;;5071735;28;20247;-30
2023/09/20 12:55:59;;;;;;;4.25;2.55;;;25.80;99.90;;;;;;5071460;28;20499;-30
2023/09/20 12:58:25;;;;;;;4.50;2.47;;;26.10;99.90;;;;;;5073039;28;20511;-31
2023/09/20 13:00:51;;;;;;;4.38;2.47;;;26.00;99.90;;;;;;5072622;28;20036;-29
2023/09/20 13:03:17;;;;;;;3.30;2.42;;;26.10;99.90;;;;;;5071823;28;20033;-30
2023/09/20 13:05:44;;;;;;;5.53;2.30;;;25.80;99.90;;;;;;5072990;28;20036;-30
2023/09/20 13:08:19;;;;;;;2.83;2.10;;;25.60;99.90;;;;;;5066767;28;20124;-31
2023/09/20 13:10:45;;;;;;;3.45;2.10;;;25.70;99.90;;;;;;5072820;28;20044;-29
2023/09/20 13:13:11;;;;;;;2.83;2.10;;;25.70;99.90;;;;;;5075182;28;20173;-31
2023/09/20 13:15:42;;;;;;;4.68;2.45;;;25.80;99.90;;;;;;5077031;28;20087;-29
2023/09/20 13:18:10;;;;;;;4.55;2.80;;;26.00;99.90;;;;;;5088850;28;20086;-30
2023/09/20 13:20:41;;;;;;;3.72;2.35;;;26.10;99.90;;;;;;5055903;28;20055;-30
2023/09/20 13:23:07;;;;;;;4.22;2.30;;;25.90;99.90;;;;;;5071186;28;20425;-31
2023/09/20 13:25:34;;;;;;;2.20;1.83;;;25.50;99.90;;;;;;5075287;28;20124;-31
2023/09/20 13:27:59;;;;;;;5.72;2.20;;;25.10;99.90;;;;;;5068311;28;20521;-31
2023/09/20 13:30:26;;;;;;;2.80;2.13;;;24.80;99.90;;;;;;5072583;28;20037;-31
2023/09/20 13:32:53;;;;;;;3.88;1.95;;;24.50;99.90;;;;;;5071214;28;20032;-30
2023/09/20 13:35:19;;;;;;;4.72;2.13;;;24.50;99.90;;;;;;5075276;28;20064;-31
2023/09/20 13:37:45;;;;;;;4.15;2.20;;;24.60;99.90;;;;;;5075628;28;20044;-30
2023/09/20 13:40:17;;;;;;;3.92;2.03;;;24.60;99.90;;;;;;5050109;28;20052;-31
2023/09/20 13:42:45;;;;;;;2.35;1.70;;;25.20;99.90;;;;;;5068488;28;20044;-31
2023/09/20 13:45:12;;;;;;;1.98;1.83;;;25.10;99.90;;;;;;5074693;28;20091;-31
2023/09/20 13:47:41;;;;;;;3.00;1.75;;;24.90;99.90;;;;;;5072050;28;20300;-31
2023/09/20 13:50:09;;;;;;;2.28;2.00;;;25.20;99.90;;;;;;5074021;28;20411;-30